createdAt,value
2022-11-17T00:00:05.695Z,7.50
2022-11-17T00:02:41.572Z,8.05
2022-11-17T00:05:14.617Z,7.20
2022-11-17T00:07:50.047Z,6.85
2022-11-17T00:10:22.109Z,6.22
2022-11-17T00:13:12.529Z,7.00
2022-11-17T00:15:44.917Z,6.88
2022-11-17T00:18:35.839Z,8.18
2022-11-17T00:21:21.802Z,6.30
2022-11-17T00:23:54.468Z,6.43
2022-11-17T00:26:32.319Z,5.27
2022-11-17T00:29:05.849Z,5.00
2022-11-17T00:31:58.889Z,6.18
2022-11-17T00:34:30.990Z,6.07
2022-11-17T00:37:04.386Z,5.60
2022-11-17T00:39:36.530Z,6.15
2022-11-17T00:42:08.687Z,5.57
2022-11-17T00:44:40.792Z,5.38
2022-11-17T00:47:12.928Z,5.00
2022-11-17T00:49:45.209Z,4.93
2022-11-17T00:52:17.279Z,5.32
2022-11-17T00:54:49.274Z,5.05
2022-11-17T00:57:21.322Z,4.63
2022-11-17T00:59:56.327Z,4.35
2022-11-17T01:02:28.729Z,4.63
2022-11-17T01:05:00.768Z,5.70
2022-11-17T01:07:35.847Z,4.65
2022-11-17T01:10:08.568Z,4.82
2022-11-17T01:12:40.532Z,4.47
2022-11-17T01:15:12.597Z,4.75
2022-11-17T01:17:44.627Z,5.40
2022-11-17T01:20:16.716Z,5.35
2022-11-17T01:22:48.734Z,5.15
2022-11-17T01:25:20.831Z,4.50
2022-11-17T01:27:52.858Z,5.10
2022-11-17T01:30:25.006Z,6.32
2022-11-17T01:32:57.012Z,4.38
2022-11-17T01:35:29.037Z,4.90
2022-11-17T01:38:01.195Z,4.28
2022-11-17T01:40:33.164Z,4.55
2022-11-17T01:43:10.904Z,4.60
2022-11-17T01:45:43.852Z,4.07
2022-11-17T01:48:15.955Z,4.50
2022-11-17T01:50:49.564Z,4.60
2022-11-17T01:55:59.855Z,4.20
2022-11-17T01:58:36.583Z,4.30
2022-11-17T02:01:08.669Z,4.07
2022-11-17T02:03:41.883Z,4.05
2022-11-17T02:06:22.200Z,4.88
2022-11-17T02:08:55.231Z,3.83
2022-11-17T02:11:29.932Z,4.70
2022-11-17T02:14:04.858Z,4.35
2022-11-17T02:16:36.842Z,4.20
2022-11-17T02:19:11.580Z,4.15
2022-11-17T02:22:21.772Z,3.60
2022-11-17T02:25:27.648Z,4.13
2022-11-17T02:28:15.012Z,3.65
2022-11-17T02:31:03.183Z,3.50
2022-11-17T02:33:47.232Z,3.33
2022-11-17T02:36:32.110Z,5.30
2022-11-17T02:39:21.995Z,3.75
2022-11-17T02:42:03.303Z,4.43
2022-11-17T02:44:43.004Z,4.00
2022-11-17T02:47:36.165Z,3.10
2022-11-17T02:50:10.768Z,3.70
2022-11-17T02:52:43.021Z,3.90
2022-11-17T02:55:15.036Z,3.47
2022-11-17T02:57:47.338Z,3.75
2022-11-17T03:00:20.545Z,3.70
2022-11-17T03:03:12.650Z,3.92
2022-11-17T03:06:09.485Z,3.75
2022-11-17T03:09:13.249Z,3.72
2022-11-17T03:11:50.072Z,3.60
2022-11-17T03:14:41.486Z,3.80
2022-11-17T03:17:59.639Z,3.13
2022-11-17T03:20:55.566Z,3.33
2022-11-17T03:23:59.462Z,3.42
2022-11-17T03:26:36.459Z,3.28
2022-11-17T03:29:12.785Z,3.40
2022-11-17T03:31:47.632Z,3.10
2022-11-17T03:34:22.911Z,3.30
2022-11-17T03:37:01.857Z,3.45
2022-11-17T03:39:38.021Z,3.38
2022-11-17T03:42:21.289Z,4.00
2022-11-17T03:45:02.438Z,4.07
2022-11-17T03:47:35.697Z,3.97
2022-11-17T03:50:16.714Z,4.10
2022-11-17T03:52:49.690Z,5.00
2022-11-17T03:55:27.541Z,4.80
2022-11-17T03:58:12.767Z,4.78
2022-11-17T04:00:46.606Z,4.55
2022-11-17T04:03:21.242Z,4.85
2022-11-17T04:05:53.421Z,5.00
2022-11-17T04:08:29.536Z,4.15
2022-11-17T04:11:20.044Z,4.88
2022-11-17T04:14:10.803Z,4.50
2022-11-17T04:16:42.796Z,5.22
2022-11-17T04:19:14.840Z,4.80
2022-11-17T04:21:46.913Z,4.72
2022-11-17T04:24:19.011Z,4.40
2022-11-17T04:27:10.045Z,5.10
2022-11-17T04:29:42.038Z,4.75
2022-11-17T04:32:14.031Z,5.03
2022-11-17T04:34:46.041Z,5.00
2022-11-17T04:37:18.110Z,4.90
2022-11-17T04:39:50.130Z,4.70
2022-11-17T04:42:22.104Z,6.10
2022-11-17T04:44:54.144Z,5.72
2022-11-17T04:47:26.141Z,5.75
2022-11-17T04:49:58.269Z,5.55
2022-11-17T04:52:30.337Z,6.00
2022-11-17T04:55:02.335Z,5.68
2022-11-17T04:57:34.530Z,6.15
2022-11-17T05:00:07.454Z,6.28
2022-11-17T05:02:39.513Z,6.90
2022-11-17T05:05:11.514Z,5.60
2022-11-17T05:07:43.477Z,5.55
2022-11-17T05:10:16.133Z,4.95
2022-11-17T05:13:06.670Z,5.63
2022-11-17T05:15:57.666Z,6.07
2022-11-17T05:18:29.640Z,5.20
2022-11-17T05:21:06.252Z,5.30
2022-11-17T05:23:56.606Z,4.28
2022-11-17T05:26:31.877Z,4.75
2022-11-17T05:29:06.117Z,3.92
2022-11-17T05:31:38.436Z,3.45
2022-11-17T05:34:12.661Z,3.63
2022-11-17T05:36:45.920Z,2.88
2022-11-17T05:39:17.948Z,2.78
2022-11-17T05:41:49.867Z,2.55
2022-11-17T05:44:22.277Z,2.83
2022-11-17T05:46:54.272Z,2.50
2022-11-17T05:49:26.309Z,2.60
2022-11-17T05:51:58.458Z,3.30
2022-11-17T05:54:30.455Z,3.78
2022-11-17T05:57:07.449Z,4.15
2022-11-17T05:59:46.047Z,3.75
2022-11-17T06:02:27.364Z,3.53
2022-11-17T06:04:59.425Z,3.97
2022-11-17T06:07:31.504Z,5.05
2022-11-17T06:10:03.968Z,4.80
2022-11-17T06:12:36.134Z,7.55
2022-11-17T06:15:08.729Z,6.63
2022-11-17T06:17:50.532Z,9.85
2022-11-17T06:20:26.934Z,14.32
2022-11-17T06:23:02.909Z,9.93
2022-11-17T06:25:37.744Z,9.13
2022-11-17T06:28:13.541Z,9.38
2022-11-17T06:30:45.839Z,8.93
2022-11-17T06:33:19.436Z,8.85
2022-11-17T06:38:23.856Z,22.45
2022-11-17T06:40:56.420Z,11.98
2022-11-17T06:43:28.471Z,6.18
2022-11-17T06:46:05.602Z,6.13
2022-11-17T06:48:38.522Z,5.10
2022-11-17T06:51:11.032Z,5.93
2022-11-17T06:53:43.392Z,5.93
2022-11-17T06:56:17.355Z,5.15
2022-11-17T06:58:49.463Z,4.40
2022-11-17T07:01:21.652Z,4.35
2022-11-17T07:03:54.123Z,4.65
2022-11-17T07:06:26.447Z,4.80
2022-11-17T07:08:58.588Z,5.25
2022-11-17T07:11:30.637Z,5.78
2022-11-17T07:14:03.666Z,6.85
2022-11-17T07:16:35.663Z,5.63
2022-11-17T07:19:09.810Z,6.78
2022-11-17T07:21:41.794Z,5.65
2022-11-17T07:24:13.798Z,6.32
2022-11-17T07:26:45.880Z,5.35
2022-11-17T07:29:18.004Z,5.97
2022-11-17T07:31:50.264Z,5.35
2022-11-17T07:34:23.015Z,5.45
2022-11-17T07:36:55.256Z,5.90
2022-11-17T07:39:27.383Z,5.68
2022-11-17T07:41:59.529Z,5.72
2022-11-17T07:44:34.816Z,7.20
2022-11-17T07:47:10.335Z,6.40
2022-11-17T07:49:42.410Z,7.25
2022-11-17T07:52:14.448Z,7.80
2022-11-17T07:54:46.456Z,7.20
2022-11-17T07:57:18.547Z,6.13
2022-11-17T07:59:50.560Z,7.57
2022-11-17T08:02:22.655Z,8.02
2022-11-17T08:04:54.773Z,7.00
2022-11-17T08:07:26.905Z,7.35
2022-11-17T08:09:59.248Z,9.43
2022-11-17T08:12:31.213Z,7.88
2022-11-17T08:15:03.405Z,8.63
2022-11-17T08:17:35.526Z,7.72
2022-11-17T08:20:08.674Z,9.32
2022-11-17T08:22:40.765Z,10.30
2022-11-17T08:25:13.955Z,8.35
2022-11-17T08:27:46.280Z,11.55
2022-11-17T08:30:20.424Z,9.40
2022-11-17T08:32:54.596Z,8.77
2022-11-17T08:35:28.362Z,8.23
2022-11-17T08:38:02.761Z,8.35
2022-11-17T08:40:35.122Z,8.98
2022-11-17T08:43:07.925Z,12.15
2022-11-17T08:45:42.991Z,8.70
2022-11-17T08:48:15.164Z,10.80
2022-11-17T08:50:47.646Z,8.88
2022-11-17T08:53:21.598Z,11.15
2022-11-17T08:55:53.700Z,7.80
2022-11-17T08:58:25.934Z,6.80
2022-11-17T09:01:03.826Z,10.82
2022-11-17T09:03:37.807Z,12.85
2022-11-17T09:06:10.793Z,9.97
2022-11-17T09:08:46.249Z,6.68
2022-11-17T09:11:21.109Z,6.25
2022-11-17T09:13:53.585Z,7.07
2022-11-17T09:16:25.908Z,6.50
2022-11-17T09:18:58.482Z,6.05
2022-11-17T09:21:31.737Z,4.90
2022-11-17T09:24:04.035Z,3.33
2022-11-17T09:26:36.441Z,2.80
2022-11-17T09:29:09.010Z,3.15
2022-11-17T09:31:41.381Z,3.80
2022-11-17T09:34:13.501Z,2.85
2022-11-17T09:36:45.773Z,3.10
2022-11-17T09:39:17.882Z,2.78
2022-11-17T09:41:53.357Z,2.38
2022-11-17T09:44:31.434Z,2.53
2022-11-17T09:47:31.372Z,2.10
2022-11-17T09:50:06.269Z,1.60
2022-11-17T09:53:07.234Z,2.35
2022-11-17T09:55:45.456Z,2.03
2022-11-17T09:58:55.703Z,1.70
2022-11-17T10:01:29.043Z,2.33
2022-11-17T10:04:01.557Z,1.95
2022-11-17T10:06:33.737Z,2.30
2022-11-17T10:09:24.102Z,1.70
2022-11-17T10:12:13.089Z,1.33
2022-11-17T10:14:48.352Z,1.52
2022-11-17T10:17:20.466Z,1.83
2022-11-17T10:19:52.529Z,2.15
2022-11-17T10:22:35.089Z,2.30
2022-11-17T10:25:23.684Z,2.92
2022-11-17T10:27:56.320Z,2.65
2022-11-17T10:30:28.448Z,1.77
2022-11-17T10:33:02.202Z,1.60
2022-11-17T10:35:35.929Z,1.90
2022-11-17T10:38:19.149Z,1.90
2022-11-17T10:40:52.567Z,2.40
2022-11-17T10:43:36.592Z,1.80
2022-11-17T10:46:16.783Z,1.80
2022-11-17T10:49:01.008Z,1.92
2022-11-17T10:51:34.778Z,1.90
2022-11-17T10:54:16.131Z,2.00
2022-11-17T10:56:51.785Z,1.70
2022-11-17T10:59:42.582Z,1.65
2022-11-17T11:02:50.175Z,1.77
2022-11-17T11:05:22.283Z,1.90
2022-11-17T11:08:19.820Z,1.83
2022-11-17T11:10:53.411Z,1.60
2022-11-17T11:16:14.807Z,1.80
2022-11-17T11:18:48.252Z,1.50
2022-11-17T11:21:38.299Z,1.80
2022-11-17T11:24:16.931Z,1.40
2022-11-17T11:27:22.363Z,1.50
2022-11-17T11:30:05.440Z,1.60
2022-11-17T11:32:56.667Z,1.73
2022-11-17T11:35:46.516Z,1.15
2022-11-17T11:38:24.714Z,1.40
2022-11-17T11:41:31.101Z,1.52
2022-11-17T11:44:03.209Z,2.03
2022-11-17T11:47:16.648Z,4.03
2022-11-17T11:49:57.800Z,1.73
2022-11-17T11:52:37.480Z,1.30
2022-11-17T11:55:36.593Z,2.70
2022-11-17T11:58:17.467Z,2.40
2022-11-17T12:00:59.010Z,3.45
2022-11-17T12:03:44.692Z,0.80
2022-11-17T12:06:54.153Z,2.35
2022-11-17T12:09:49.334Z,4.10
2022-11-17T12:12:31.796Z,5.30
2022-11-17T12:15:09.303Z,5.68
2022-11-17T12:18:12.118Z,4.45
2022-11-17T12:20:54.690Z,3.58
2022-11-17T12:23:36.429Z,2.50
2022-11-17T12:26:19.999Z,2.13
2022-11-17T12:29:21.291Z,2.25
2022-11-17T12:31:55.646Z,2.58
2022-11-17T12:34:33.861Z,2.25
2022-11-17T12:37:18.519Z,4.32
2022-11-17T12:40:02.100Z,3.05
2022-11-17T12:42:36.303Z,1.25
2022-11-17T12:47:59.485Z,2.67
2022-11-17T12:50:54.033Z,2.60
2022-11-17T12:53:32.421Z,1.88
2022-11-17T12:56:16.635Z,1.73
2022-11-17T12:58:48.605Z,2.20
2022-11-17T13:01:36.166Z,2.50
2022-11-17T13:04:22.983Z,1.70
2022-11-17T13:07:06.798Z,1.73
2022-11-17T13:09:38.847Z,1.70
2022-11-17T13:12:11.344Z,1.50
2022-11-17T13:14:56.030Z,1.95
2022-11-17T13:17:30.863Z,2.08
2022-11-17T13:20:22.583Z,1.67
2022-11-17T13:23:02.330Z,2.30
2022-11-17T13:25:34.899Z,2.10
2022-11-17T13:28:23.639Z,1.60
2022-11-17T13:30:55.857Z,1.67
2022-11-17T13:33:31.596Z,1.40
2022-11-17T13:36:25.038Z,1.70
2022-11-17T13:39:00.364Z,1.40
2022-11-17T13:41:38.812Z,1.45
2022-11-17T13:44:17.919Z,1.67
2022-11-17T13:46:50.250Z,1.75
2022-11-17T13:49:34.900Z,1.63
2022-11-17T13:52:40.418Z,1.85
2022-11-17T13:55:21.201Z,1.73
2022-11-17T13:58:22.254Z,1.50
2022-11-17T14:00:58.379Z,1.27
2022-11-17T14:03:33.431Z,1.60
2022-11-17T14:06:10.854Z,1.75
2022-11-17T14:09:01.394Z,1.70
2022-11-17T14:11:33.644Z,2.17
2022-11-17T14:14:13.570Z,2.53
2022-11-17T14:16:46.325Z,2.00
2022-11-17T14:19:18.299Z,2.00
2022-11-17T14:22:29.541Z,1.95
2022-11-17T14:25:05.719Z,2.50
2022-11-17T14:27:39.791Z,2.17
2022-11-17T14:30:13.487Z,1.80
2022-11-17T14:32:45.806Z,2.15
2022-11-17T14:37:50.154Z,1.95
2022-11-17T14:40:22.528Z,1.92
2022-11-17T14:42:54.636Z,2.05
2022-11-17T14:45:26.773Z,2.10
2022-11-17T14:47:58.858Z,2.42
2022-11-17T14:50:31.401Z,2.30
2022-11-17T14:53:03.783Z,2.70
2022-11-17T14:55:35.858Z,3.75
2022-11-17T14:58:09.924Z,6.63
2022-11-17T15:00:42.463Z,3.05
2022-11-17T15:03:15.098Z,3.28
2022-11-17T15:05:47.238Z,3.00
2022-11-17T15:08:19.344Z,3.58
2022-11-17T15:10:52.849Z,3.22
2022-11-17T15:13:24.904Z,3.50
2022-11-17T15:16:08.255Z,3.45
2022-11-17T15:21:14.971Z,2.33
2022-11-17T15:23:47.197Z,3.05
2022-11-17T15:26:23.458Z,2.75
2022-11-17T15:28:58.166Z,2.72
2022-11-17T15:31:30.426Z,2.53
2022-11-17T15:34:02.696Z,2.58
2022-11-17T15:36:34.703Z,2.50
2022-11-17T15:39:07.180Z,2.72
2022-11-17T15:41:39.324Z,3.20
2022-11-17T15:44:11.427Z,3.17
2022-11-17T15:46:47.389Z,3.20
2022-11-17T15:49:20.097Z,2.88
2022-11-17T15:51:52.454Z,3.58
2022-11-17T15:54:24.500Z,3.13
2022-11-17T15:56:56.583Z,3.67
2022-11-17T15:59:28.764Z,3.20
2022-11-17T16:02:08.701Z,4.00
2022-11-17T16:04:40.735Z,3.20
2022-11-17T16:07:12.928Z,4.40
2022-11-17T16:09:49.135Z,3.80
2022-11-17T16:12:22.458Z,3.80
2022-11-17T16:14:54.440Z,4.22
2022-11-17T16:17:26.463Z,4.47
2022-11-17T16:19:58.834Z,5.93
2022-11-17T16:22:31.307Z,5.03
2022-11-17T16:25:05.571Z,5.57
2022-11-17T16:27:37.535Z,5.93
2022-11-17T16:30:10.180Z,6.18
2022-11-17T16:32:42.215Z,7.85
2022-11-17T16:35:14.412Z,16.60
2022-11-17T16:37:51.948Z,11.68
2022-11-17T16:40:24.050Z,13.88
2022-11-17T16:42:58.393Z,14.23
2022-11-17T16:45:30.990Z,11.65
2022-11-17T16:48:03.232Z,11.57
2022-11-17T16:50:39.918Z,11.82
2022-11-17T16:53:12.331Z,12.15
2022-11-17T16:55:44.650Z,11.85
2022-11-17T16:58:16.719Z,10.55
2022-11-17T17:00:48.901Z,10.05
2022-11-17T17:03:20.894Z,9.02
2022-11-17T17:05:52.988Z,9.50
2022-11-17T17:08:27.608Z,11.40
2022-11-17T17:11:08.467Z,10.82
2022-11-17T17:13:41.710Z,11.82
2022-11-17T17:16:16.573Z,10.52
2022-11-17T17:18:49.107Z,10.50
2022-11-17T17:21:21.178Z,10.85
2022-11-17T17:23:53.478Z,14.35
2022-11-17T17:26:27.681Z,13.18
2022-11-17T17:29:01.766Z,12.68
2022-11-17T17:31:37.346Z,13.15
2022-11-17T17:34:11.763Z,11.60
2022-11-17T17:36:45.105Z,11.43
2022-11-17T17:39:17.489Z,11.98
2022-11-17T17:41:49.806Z,7.15
2022-11-17T17:44:21.871Z,7.13
2022-11-17T17:46:53.940Z,7.70
2022-11-17T17:49:26.041Z,6.95
2022-11-17T17:51:58.284Z,7.55
2022-11-17T17:54:30.419Z,7.97
2022-11-17T17:57:02.773Z,7.97
2022-11-17T17:59:34.948Z,8.27
2022-11-17T18:02:07.010Z,8.68
2022-11-17T18:04:39.139Z,9.13
2022-11-17T18:07:17.075Z,8.40
2022-11-17T18:09:56.653Z,7.32
2022-11-17T18:12:28.990Z,7.10
2022-11-17T18:15:02.032Z,9.40
2022-11-17T18:17:34.096Z,9.00
2022-11-17T18:20:06.790Z,8.15
2022-11-17T18:22:38.842Z,8.15
2022-11-17T18:25:15.138Z,7.40
2022-11-17T18:27:51.024Z,7.47
2022-11-17T18:30:27.587Z,7.55
2022-11-17T18:33:02.913Z,7.57
2022-11-17T18:35:35.891Z,9.10
2022-11-17T18:38:08.345Z,12.38
2022-11-17T18:40:40.718Z,12.25
2022-11-17T18:43:12.861Z,12.90
2022-11-17T18:45:45.259Z,10.73
2022-11-17T18:48:17.269Z,10.45
2022-11-17T18:51:18.374Z,9.95
2022-11-17T18:53:45.066Z,9.95
2022-11-17T18:56:21.057Z,10.10
2022-11-17T18:58:53.743Z,10.00
2022-11-17T19:01:30.807Z,9.93
2022-11-17T19:04:03.219Z,8.95
2022-11-17T19:06:38.367Z,9.65
2022-11-17T19:09:10.925Z,9.20
2022-11-17T19:11:43.698Z,8.77
2022-11-17T19:14:15.949Z,9.18
2022-11-17T19:16:50.423Z,8.00
2022-11-17T19:19:22.491Z,8.48
2022-11-17T19:21:55.400Z,10.40
2022-11-17T19:24:27.555Z,10.50
2022-11-17T19:26:59.705Z,13.77
2022-11-17T19:29:31.773Z,11.35
2022-11-17T19:32:04.020Z,9.45
2022-11-17T19:34:37.056Z,9.52
2022-11-17T19:37:09.081Z,10.80
2022-11-17T19:39:41.099Z,9.85
2022-11-17T19:42:13.143Z,11.25
2022-11-17T19:44:45.524Z,13.73
2022-11-17T19:47:18.189Z,14.18
2022-11-17T19:49:50.224Z,12.23
2022-11-17T19:52:22.311Z,12.52
2022-11-17T19:54:54.491Z,13.20
2022-11-17T19:57:26.536Z,10.75
2022-11-17T19:59:58.625Z,10.32
2022-11-17T20:02:30.744Z,9.65
2022-11-17T20:05:06.631Z,11.15
2022-11-17T20:07:42.835Z,12.55
2022-11-17T20:10:15.177Z,15.38
2022-11-17T20:12:49.408Z,12.23
2022-11-17T20:15:34.022Z,12.20
2022-11-17T20:18:06.851Z,13.15
2022-11-17T20:20:38.897Z,12.75
2022-11-17T20:23:10.917Z,13.20
2022-11-17T20:25:42.945Z,13.70
2022-11-17T20:28:15.363Z,14.77
2022-11-17T20:30:47.414Z,12.35
2022-11-17T20:33:19.415Z,13.05
2022-11-17T20:35:51.560Z,13.00
2022-11-17T20:38:23.532Z,14.13
2022-11-17T20:40:59.944Z,12.38
2022-11-17T20:43:32.950Z,13.43
2022-11-17T20:46:05.043Z,15.52
2022-11-17T20:48:37.143Z,13.90
2022-11-17T20:51:18.197Z,12.60
2022-11-17T20:53:50.696Z,12.50
2022-11-17T20:56:23.073Z,13.45
2022-11-17T20:58:55.217Z,12.38
2022-11-17T21:01:27.448Z,11.18
2022-11-17T21:03:59.967Z,10.77
2022-11-17T21:06:32.008Z,11.88
2022-11-17T21:09:04.331Z,12.27
2022-11-17T21:11:55.163Z,13.35
2022-11-17T21:14:28.124Z,12.88
2022-11-17T21:17:01.150Z,11.98
2022-11-17T21:19:37.844Z,11.98
2022-11-17T21:22:11.526Z,9.30
2022-11-17T21:24:43.566Z,9.32
2022-11-17T21:27:19.748Z,10.45
2022-11-17T21:29:52.944Z,7.45
2022-11-17T21:32:24.940Z,7.78
2022-11-17T21:34:59.474Z,7.97
2022-11-17T21:37:32.055Z,7.75
2022-11-17T21:40:04.442Z,7.50
2022-11-17T21:42:36.505Z,8.15
2022-11-17T21:45:09.303Z,7.05
2022-11-17T21:47:41.599Z,6.78
2022-11-17T21:50:16.181Z,7.10
2022-11-17T21:52:48.154Z,7.45
2022-11-17T21:55:20.208Z,7.57
2022-11-17T21:57:52.248Z,7.05
2022-11-17T22:00:25.168Z,7.20
2022-11-17T22:02:57.234Z,7.75
2022-11-17T22:05:29.434Z,7.68
2022-11-17T22:08:01.550Z,8.93
2022-11-17T22:10:35.622Z,8.85
2022-11-17T22:13:08.406Z,8.77
2022-11-17T22:15:40.344Z,8.37
2022-11-17T22:18:12.334Z,9.95
2022-11-17T22:20:49.759Z,8.32
2022-11-17T22:23:22.383Z,8.63
2022-11-17T22:25:59.532Z,7.50
2022-11-17T22:28:31.791Z,5.97
2022-11-17T22:31:09.422Z,6.57
2022-11-17T22:33:45.973Z,6.25
2022-11-17T22:36:18.705Z,6.32
2022-11-17T22:38:52.101Z,6.90
2022-11-17T22:41:24.379Z,6.93
2022-11-17T22:43:57.698Z,6.60
2022-11-17T22:46:29.770Z,6.97
2022-11-17T22:49:02.063Z,6.88
2022-11-17T22:51:52.642Z,5.95
2022-11-17T22:54:24.875Z,5.70
2022-11-17T22:56:58.021Z,5.47
2022-11-17T22:59:31.000Z,4.53
2022-11-17T23:02:03.203Z,4.30
2022-11-17T23:04:35.170Z,4.72
2022-11-17T23:07:08.042Z,4.32
2022-11-17T23:09:40.253Z,3.85
2022-11-17T23:12:12.236Z,3.95
2022-11-17T23:14:44.204Z,4.70
2022-11-17T23:17:16.512Z,5.03
2022-11-17T23:19:49.203Z,4.38
2022-11-17T23:22:21.321Z,4.13
2022-11-17T23:24:53.334Z,4.97
2022-11-17T23:27:25.310Z,4.50
2022-11-17T23:29:57.291Z,4.45
2022-11-17T23:32:29.301Z,4.10
2022-11-17T23:35:01.326Z,3.80
2022-11-17T23:37:33.551Z,3.67
2022-11-17T23:40:06.113Z,4.10
2022-11-17T23:42:42.887Z,4.65
2022-11-17T23:45:15.350Z,4.72
2022-11-17T23:47:47.731Z,5.20
2022-11-17T23:50:19.731Z,5.65
2022-11-17T23:52:51.675Z,4.85
2022-11-17T23:55:23.907Z,4.10
2022-11-17T23:57:55.886Z,4.82
